• Join FlightAware (Why Join?)
  • Login
  • US Flag 
01:26AM EDT


 

Airport Tracker/Info


-or-


 

Live Flight TrackerFlight Track Log ✈ ASQ4209 ✈ 23-May-2013 ✈ KCLL - KIAH

Flight Track Log - Related Links

Times and Time Zones

All times are in EDT time to prevent confusion due to time zone crossing. See the ASQ4209 flight status page for this flight to view local times or setup timezone preferences in your user account.

Time Position Orientation Groundspeed Altitude Reporting Facility
EDT Latitude Longitude Course Direction KTS MPH feet Rate Location/Type
07:37PM 30.5750 -96.3581 63° Northeast 151 174 1,000  Level Houston Center
07:38PM 30.5603 -96.3547 169° South 161 185 2,000 1,980 Climbing Houston Center
07:39PM 30.5053 -96.3425 169° South 215 247 3,500 2,220 Climbing Houston Center
07:40PM 30.4258 -96.3286 171° South 257 296 6,600 1,680 Climbing Houston Center
07:41PM 30.4690 -96.1593 81° East  Level Estimated
07:41PM 30.3931 -96.2683 122° Southeast 275 316 7,000  Level Houston Center
07:42PM 30.4390 -96.1083 139° Southeast  Level Estimated
07:42PM 30.4069 -96.1831 79° East 268 308 7,000  Level Houston Center
07:43PM 30.4634 -96.0534 63° Northeast  Level FlightAware Approximate
07:43PM 30.4200 -96.0956 80° East 272 313 7,000  Level Houston Center
07:44PM 30.4336 -95.9992 81° East 268 308 7,000  Level Houston Center
07:45PM 30.4450 -95.9125 81° East 255 293 7,000  Level Houston Center
07:46PM 30.3922 -95.8847 156° South 230 265 7,000  Level Houston Center
07:47PM 30.3253 -95.8875 182° South 260 299 7,000  Level Houston Center
07:48PM 30.2825 -95.8297 131° Southeast 261 300 7,000 -420 Level Houston Center
07:49PM 30.2392 -95.7694 130° Southeast 256 295 6,200 -660 Descending Houston Center
07:50PM 30.1961 -95.7103 130° Southeast 261 300 5,700 -720 Descending Houston Center
07:51PM 30.1336 -95.6439 137° Southeast 259 298 4,800 -780 Descending Houston Center
07:52PM 30.0750 -95.5978 146° Southeast 255 293 4,200 -780 Descending Houston Center
07:53PM 30.0161 -95.5494 145° Southeast 253 291 3,300 -900 Descending Houston Center